Time;durP1;ratioP1;P1;durP2;ratioP2;P2;SDS_P1;SDS_P2;PMS_P1;PMS_P2;Temp;Humidity;BMP_temperature;BMP_pressure;BME280_temperature;BME280_humidity;BME280_pressure;Samples;Min_cycle;Max_cycle;Signal;HPM_P1;HPM_P2
2022/09/03 00:01:39;;;;;;;0.30;0.30;;;;;;;;;;5081760;28;20043;-78
2022/09/03 00:04:14;;;;;;;0.30;0.30;;;14.70;99.90;;;;;;5086965;28;20048;-79
2022/09/03 00:06:47;;;;;;;0.30;0.30;;;14.60;99.90;;;;;;5085825;28;20798;-78
2022/09/03 00:09:23;;;;;;;0.32;0.32;;;14.60;99.90;;;;;;5070869;28;20095;-78
2022/09/03 00:11:54;;;;;;;0.35;0.35;;;14.50;99.90;;;;;;5071048;28;20043;-79
2022/09/03 00:14:40;;;;;;;0.20;0.20;;;14.50;99.90;;;;;;5083883;28;20040;-78
2022/09/03 00:17:17;;;;;;;0.20;0.20;;;14.50;99.90;;;;;;5072281;28;20036;-79
2022/09/03 00:19:52;;;;;;;0.20;0.20;;;14.50;99.90;;;;;;5086361;28;20036;-78
2022/09/03 00:22:23;;;;;;;0.30;0.30;;;14.50;99.90;;;;;;5079335;28;20040;-79
2022/09/03 00:24:50;;;;;;;0.20;0.20;;;14.40;99.90;;;;;;5084611;28;20171;-77
2022/09/03 00:27:20;;;;;;;0.30;0.30;;;14.30;99.90;;;;;;5091634;28;20040;-77
2022/09/03 00:30:04;;;;;;;0.30;0.30;;;14.20;99.90;;;;;;5089833;28;20050;-77
2022/09/03 00:32:45;;;;;;;0.30;0.30;;;14.10;99.90;;;;;;5089034;28;20098;-78
2022/09/03 00:35:32;;;;;;;0.30;0.30;;;14.00;99.90;;;;;;5090908;28;20078;-78
2022/09/03 00:37:59;;;;;;;0.20;0.20;;;13.80;99.90;;;;;;5066532;28;20175;-78
2022/09/03 00:40:36;;;;;;;0.30;0.30;;;13.70;99.90;;;;;;5084435;28;20431;-78
2022/09/03 00:43:31;;;;;;;0.35;0.35;;;13.60;99.90;;;;;;5072405;28;20079;-77
2022/09/03 00:45:57;;;;;;;0.30;0.30;;;13.50;99.90;;;;;;5084761;28;20044;-77
2022/09/03 00:48:29;;;;;;;0.30;0.30;;;13.50;99.90;;;;;;5082565;28;20032;-77
2022/09/03 00:51:28;;;;;;;0.40;0.40;;;13.50;99.90;;;;;;5086912;28;20049;-77
2022/09/03 00:54:18;;;;;;;0.30;0.30;;;13.40;99.90;;;;;;5084458;28;20091;-77
2022/09/03 00:57:01;;;;;;;0.30;0.30;;;13.30;99.90;;;;;;5074505;28;20049;-77
2022/09/03 00:59:46;;;;;;;0.45;0.45;;;13.30;99.90;;;;;;5076890;28;20064;-77
2022/09/03 01:02:32;;;;;;;0.35;0.35;;;13.20;99.90;;;;;;5088504;28;20148;-78
2022/09/03 01:05:21;;;;;;;0.35;0.35;;;13.10;99.90;;;;;;5082763;28;20440;-78
2022/09/03 01:08:34;;;;;;;0.40;0.40;;;13.00;99.90;;;;;;5072795;28;20056;-78
2022/09/03 01:11:50;;;;;;;0.50;0.50;;;12.90;99.90;;;;;;5059516;28;20379;-78
2022/09/03 01:14:42;;;;;;;0.50;0.50;;;12.80;99.90;;;;;;5076270;28;20102;-78
2022/09/03 01:17:15;;;;;;;0.40;0.40;;;12.70;99.90;;;;;;5083832;28;20066;-78
2022/09/03 01:20:10;;;;;;;0.40;0.40;;;12.70;99.90;;;;;;5088770;28;20119;-79
2022/09/03 01:22:53;;;;;;;0.40;0.40;;;12.60;99.90;;;;;;5088311;28;20440;-78
2022/09/03 01:25:45;;;;;;;0.28;0.28;;;12.60;99.90;;;;;;5090025;28;20072;-79
2022/09/03 01:28:31;;;;;;;0.45;0.45;;;12.50;99.90;;;;;;5108177;28;20126;-78
2022/09/03 01:31:35;;;;;;;0.40;0.40;;;12.40;99.90;;;;;;5105113;28;20161;-78
2022/09/03 01:34:12;;;;;;;0.30;0.30;;;12.40;99.90;;;;;;5088141;28;20144;-78
2022/09/03 01:37:09;;;;;;;0.30;0.30;;;12.40;99.90;;;;;;5085939;28;20036;-78
2022/09/03 01:40:07;;;;;;;0.40;0.40;;;12.40;99.90;;;;;;5085940;28;20122;-79
2022/09/03 01:42:58;;;;;;;0.30;0.30;;;12.40;99.90;;;;;;5089314;28;20500;-79
2022/09/03 01:45:39;;;;;;;0.40;0.40;;;12.30;99.90;;;;;;5084354;28;20746;-79
2022/09/03 01:48:29;;;;;;;0.30;0.30;;;12.30;99.90;;;;;;5080021;28;20028;-78
2022/09/03 01:51:01;;;;;;;0.47;0.47;;;12.40;99.90;;;;;;5087455;28;20113;-78
2022/09/03 01:54:02;;;;;;;0.50;0.50;;;12.40;99.90;;;;;;5084068;28;20094;-79
2022/09/03 01:57:08;;;;;;;0.40;0.40;;;12.50;99.90;;;;;;5076718;28;20435;-79
2022/09/03 01:59:48;;;;;;;0.40;0.40;;;12.50;99.90;;;;;;5083932;28;20426;-79
2022/09/03 02:02:24;;;;;;;0.40;0.40;;;12.60;99.90;;;;;;5099998;28;20173;-78
2022/09/03 02:05:07;;;;;;;0.40;0.40;;;12.60;99.90;;;;;;5085995;28;20115;-78
2022/09/03 02:07:46;;;;;;;0.50;0.50;;;12.60;99.90;;;;;;5072669;28;20036;-78
2022/09/03 02:10:19;;;;;;;0.30;0.30;;;12.60;99.90;;;;;;5086297;28;20055;-78
2022/09/03 02:12:50;;;;;;;0.55;0.55;;;12.60;99.90;;;;;;5084095;28;20040;-79
2022/09/03 02:15:19;;;;;;;0.40;0.40;;;12.70;99.90;;;;;;5078809;28;20076;-78
2022/09/03 02:17:47;;;;;;;0.30;0.30;;;12.60;99.90;;;;;;5090116;28;20393;-79
2022/09/03 02:20:21;;;;;;;0.22;0.22;;;12.60;99.90;;;;;;5087673;28;20032;-79
2022/09/03 02:22:49;;;;;;;0.30;0.30;;;12.60;99.90;;;;;;5077605;28;20044;-79
2022/09/03 02:25:16;;;;;;;0.40;0.40;;;12.50;99.90;;;;;;5082440;28;20575;-79
2022/09/03 02:27:43;;;;;;;0.30;0.30;;;12.50;99.90;;;;;;5086461;28;20378;-78
2022/09/03 02:30:10;;;;;;;0.40;0.40;;;12.50;99.90;;;;;;5102009;28;20092;-78
2022/09/03 02:32:36;;;;;;;0.40;0.40;;;12.50;99.90;;;;;;5096507;28;20083;-77
2022/09/03 02:35:02;;;;;;;;;;;12.50;99.90;;;;;;5091247;28;20046;-78
2022/09/03 02:37:27;;;;;;;0.30;0.30;;;12.50;99.90;;;;;;5087072;28;19924;-78
2022/09/03 02:39:53;;;;;;;0.63;0.63;;;12.60;99.90;;;;;;5079293;28;20036;-79
2022/09/03 02:42:19;;;;;;;0.40;0.40;;;12.60;99.90;;;;;;5091919;28;20040;-79
2022/09/03 02:44:54;;;;;;;0.30;0.30;;;12.60;99.90;;;;;;5106255;28;20055;-78
2022/09/03 02:47:20;;;;;;;0.38;0.38;;;12.60;99.90;;;;;;5084188;28;20393;-79
2022/09/03 02:49:48;;;;;;;0.50;0.50;;;12.60;99.90;;;;;;5092111;28;20047;-80
2022/09/03 02:52:14;;;;;;;0.40;0.40;;;12.60;99.90;;;;;;5089323;28;20059;-79
2022/09/03 02:54:41;;;;;;;0.40;0.40;;;12.60;99.90;;;;;;5104798;28;20040;-79
2022/09/03 02:57:07;;;;;;;;;;;12.60;99.90;;;;;;5085334;28;20430;-79
2022/09/03 02:59:33;;;;;;;0.38;0.38;;;12.60;99.90;;;;;;5088508;28;19926;-79
2022/09/03 03:01:59;;;;;;;;;;;12.60;99.90;;;;;;5091543;28;20421;-80
2022/09/03 03:04:25;;;;;;;0.60;0.60;;;12.60;99.90;;;;;;5089752;28;19941;-79
2022/09/03 03:06:50;;;;;;;0.30;0.30;;;12.60;99.90;;;;;;5075466;28;20044;-79
2022/09/03 03:09:17;;;;;;;0.40;0.40;;;12.60;99.90;;;;;;5089548;28;20501;-79
2022/09/03 03:11:43;;;;;;;;;;;12.50;99.90;;;;;;5081091;28;20087;-78
2022/09/03 03:14:09;;;;;;;0.30;0.30;;;12.60;99.90;;;;;;5094104;28;20356;-78
2022/09/03 03:16:34;;;;;;;;;;;12.50;99.90;;;;;;5093337;28;20496;-78
2022/09/03 03:19:00;;;;;;;0.22;0.22;;;12.60;99.90;;;;;;5083369;28;19919;-78
2022/09/03 03:21:26;;;;;;;0.30;0.30;;;12.50;99.90;;;;;;5093267;28;20041;-79
2022/09/03 03:23:52;;;;;;;;;;;12.50;99.90;;;;;;5079555;28;20046;-78
2022/09/03 03:26:20;;;;;;;0.40;0.40;;;12.50;99.90;;;;;;5088374;28;19916;-78
2022/09/03 03:28:47;;;;;;;0.40;0.40;;;12.50;99.90;;;;;;5060568;28;20047;-79
2022/09/03 03:31:18;;;;;;;0.47;0.47;;;12.50;99.90;;;;;;5089369;28;20061;-79
2022/09/03 03:33:49;;;;;;;0.40;0.40;;;12.50;99.90;;;;;;5072996;28;20187;-79
2022/09/03 03:36:15;;;;;;;0.40;0.40;;;12.50;99.90;;;;;;5083927;28;20512;-80
2022/09/03 03:38:43;;;;;;;0.30;0.30;;;12.50;99.90;;;;;;5070739;28;20032;-76
2022/09/03 03:41:17;;;;;;;0.20;0.20;;;12.60;99.90;;;;;;5090573;28;20524;-78
2022/09/03 03:43:43;;;;;;;0.30;0.30;;;12.60;99.90;;;;;;5084319;28;20231;-78
2022/09/03 03:46:09;;;;;;;;;;;12.60;99.90;;;;;;5070432;28;20059;-78
2022/09/03 03:48:36;;;;;;;0.30;0.30;;;12.70;99.90;;;;;;5090574;28;19923;-78
2022/09/03 03:51:06;;;;;;;0.40;0.40;;;12.70;99.90;;;;;;5074493;28;20109;-78
2022/09/03 03:53:33;;;;;;;0.50;0.50;;;12.80;99.90;;;;;;5092718;28;20615;-78
2022/09/03 03:56:01;;;;;;;0.35;0.35;;;12.90;99.90;;;;;;5089570;28;20050;-78
2022/09/03 03:58:31;;;;;;;0.25;0.25;;;12.90;99.90;;;;;;5087213;28;20051;-77
2022/09/03 04:01:17;;;;;;;0.40;0.40;;;13.00;99.90;;;;;;5073813;28;20037;-78
2022/09/03 04:03:43;;;;;;;0.45;0.45;;;13.10;99.90;;;;;;5072476;28;20040;-78
2022/09/03 04:06:09;;;;;;;;;;;13.10;99.90;;;;;;5086860;28;20074;-79
2022/09/03 04:08:37;;;;;;;0.40;0.40;;;13.20;99.90;;;;;;5089806;28;19923;-78
2022/09/03 04:11:05;;;;;;;0.40;0.40;;;13.30;99.90;;;;;;5089184;28;20298;-78
2022/09/03 04:13:33;;;;;;;0.50;0.50;;;13.30;99.90;;;;;;5087879;28;20044;-77
2022/09/03 04:16:26;;;;;;;0.60;0.60;;;13.30;99.90;;;;;;5085304;28;20039;-79
2022/09/03 04:18:53;;;;;;;0.38;0.38;;;13.40;99.90;;;;;;5083914;28;20041;-78
2022/09/03 04:21:21;;;;;;;0.40;0.40;;;13.40;99.90;;;;;;5090747;28;20056;-78
2022/09/03 04:23:48;;;;;;;0.30;0.30;;;13.50;99.90;;;;;;5087632;28;20051;-79
2022/09/03 04:26:27;;;;;;;0.30;0.30;;;13.50;99.90;;;;;;5086602;28;20109;-77
2022/09/03 04:28:52;;;;;;;0.30;0.30;;;13.50;99.90;;;;;;5085680;28;20056;-78
2022/09/03 04:31:20;;;;;;;0.20;0.20;;;13.50;99.90;;;;;;5078632;28;20409;-78
2022/09/03 04:33:46;;;;;;;0.55;0.55;;;13.50;99.90;;;;;;5088580;28;20055;-78
2022/09/03 04:36:20;;;;;;;0.30;0.30;;;13.50;99.90;;;;;;5086617;28;20036;-77
2022/09/03 04:38:47;;;;;;;0.20;0.20;;;13.50;99.90;;;;;;5094153;28;20555;-77
2022/09/03 04:41:15;;;;;;;2.70;0.82;;;13.50;99.90;;;;;;5086349;28;20052;-79
2022/09/03 04:43:42;;;;;;;0.40;0.40;;;13.50;99.90;;;;;;5075867;28;20125;-78
2022/09/03 04:46:09;;;;;;;0.20;0.20;;;13.50;99.90;;;;;;5087268;28;20089;-78
2022/09/03 04:48:36;;;;;;;0.30;0.30;;;13.50;99.90;;;;;;5086466;28;20048;-77
2022/09/03 04:51:12;;;;;;;0.40;0.40;;;13.40;99.90;;;;;;5086787;28;20048;-77
2022/09/03 04:53:40;;;;;;;0.30;0.30;;;13.60;99.90;;;;;;5088823;28;20041;-78
2022/09/03 04:56:21;;;;;;;0.38;0.38;;;13.40;99.90;;;;;;5081109;28;20395;-79
2022/09/03 04:58:47;;;;;;;0.38;0.38;;;13.30;99.90;;;;;;5084916;28;20044;-78
2022/09/03 05:01:18;;;;;;;0.43;0.43;;;13.30;99.90;;;;;;5092017;28;20036;-76
2022/09/03 05:03:44;;;;;;;0.40;0.40;;;13.30;99.90;;;;;;5088089;28;20050;-77
2022/09/03 05:06:10;;;;;;;0.40;0.40;;;13.30;99.90;;;;;;5070057;28;20043;-80
2022/09/03 05:08:36;;;;;;;;;;;13.30;99.90;;;;;;5053850;28;20036;-78
2022/09/03 05:11:08;;;;;;;0.82;0.82;;;13.30;99.90;;;;;;5076614;28;19991;-77
2022/09/03 05:13:35;;;;;;;0.30;0.30;;;13.20;99.90;;;;;;5087566;28;20071;-79
2022/09/03 05:16:06;;;;;;;0.30;0.30;;;13.30;99.90;;;;;;5068141;28;20036;-78
2022/09/03 05:18:34;;;;;;;0.20;0.20;;;13.30;99.90;;;;;;5090319;28;20075;-78
2022/09/03 05:21:09;;;;;;;0.30;0.30;;;13.30;99.90;;;;;;5087200;28;20119;-77
2022/09/03 05:23:36;;;;;;;0.30;0.30;;;13.30;99.90;;;;;;5089230;28;20050;-76
2022/09/03 05:26:07;;;;;;;0.40;0.40;;;13.30;99.90;;;;;;5070864;28;20047;-78
2022/09/03 05:28:35;;;;;;;0.38;0.38;;;13.40;99.90;;;;;;5065582;28;20123;-78
2022/09/03 05:31:15;;;;;;;0.32;0.32;;;13.40;99.90;;;;;;5094305;28;20083;-76
2022/09/03 05:33:46;;;;;;;0.28;0.28;;;13.30;99.90;;;;;;5103779;28;20040;-78
2022/09/03 05:36:15;;;;;;;0.50;0.50;;;13.40;99.90;;;;;;5079950;28;20040;-77
2022/09/03 05:38:41;;;;;;;0.30;0.30;;;13.40;99.90;;;;;;5089415;28;20043;-78
2022/09/03 05:41:09;;;;;;;0.30;0.30;;;13.30;99.90;;;;;;5098089;28;20075;-80
2022/09/03 05:43:35;;;;;;;0.40;0.40;;;13.40;99.90;;;;;;5092157;28;20037;-81
2022/09/03 05:46:04;;;;;;;0.17;0.17;;;13.40;99.90;;;;;;5077797;28;20040;-80
2022/09/03 05:48:32;;;;;;;0.40;0.40;;;13.40;99.90;;;;;;5087182;28;20044;-80
2022/09/03 05:51:17;;;;;;;0.30;0.30;;;13.40;99.90;;;;;;5081083;28;20162;-79
2022/09/03 05:53:47;;;;;;;0.20;0.20;;;13.40;99.90;;;;;;5073455;28;20075;-79
2022/09/03 05:56:18;;;;;;;0.30;0.30;;;13.40;99.90;;;;;;5070242;28;20043;-76
2022/09/03 05:58:50;;;;;;;0.20;0.20;;;13.40;99.90;;;;;;5089230;28;20073;-80
2022/09/03 06:01:25;;;;;;;0.20;0.20;;;13.50;99.90;;;;;;5086280;28;20041;-80
2022/09/03 06:03:57;;;;;;;0.30;0.30;;;13.40;99.90;;;;;;5106179;28;20123;-78
2022/09/03 06:06:24;;;;;;;0.32;0.32;;;13.50;99.90;;;;;;5083092;28;20451;-78
2022/09/03 06:08:56;;;;;;;0.30;0.30;;;13.50;99.90;;;;;;5071679;28;20083;-77
2022/09/03 06:11:26;;;;;;;0.40;0.40;;;13.50;99.90;;;;;;5085130;28;20056;-75
2022/09/03 06:13:53;;;;;;;0.57;0.57;;;13.60;99.90;;;;;;5091922;28;20574;-78
2022/09/03 06:16:19;;;;;;;0.30;0.30;;;13.60;99.90;;;;;;5091374;28;20115;-79
2022/09/03 06:18:44;;;;;;;0.30;0.30;;;13.60;99.90;;;;;;5091205;28;20539;-78
2022/09/03 06:21:10;;;;;;;0.50;0.50;;;13.70;99.90;;;;;;5089787;28;20477;-77
2022/09/03 06:23:36;;;;;;;0.30;0.30;;;13.70;99.90;;;;;;5077567;28;20075;-77
2022/09/03 06:26:13;;;;;;;0.35;0.35;;;13.70;99.90;;;;;;5075942;28;20044;-77
2022/09/03 06:28:42;;;;;;;0.30;0.30;;;13.80;99.90;;;;;;5069655;28;20045;-77
2022/09/03 06:31:10;;;;;;;0.30;0.30;;;13.90;99.90;;;;;;5086767;28;20513;-77
2022/09/03 06:33:37;;;;;;;0.20;0.20;;;14.00;99.90;;;;;;5069475;28;20044;-77
2022/09/03 06:36:08;;;;;;;0.30;0.30;;;14.10;99.90;;;;;;5087279;28;20047;-77
2022/09/03 06:38:35;;;;;;;0.30;0.30;;;14.30;99.90;;;;;;5094958;28;20044;-77
2022/09/03 06:41:07;;;;;;;0.47;0.47;;;14.40;99.90;;;;;;5100790;28;20487;-77
2022/09/03 06:43:38;;;;;;;0.25;0.25;;;14.50;99.90;;;;;;5076386;28;20048;-76
2022/09/03 06:46:10;;;;;;;0.50;0.50;;;14.60;99.90;;;;;;5092188;28;20051;-77
2022/09/03 06:48:37;;;;;;;0.20;0.20;;;14.70;99.90;;;;;;5093570;28;20675;-77
2022/09/03 06:51:23;;;;;;;0.25;0.25;;;14.90;99.90;;;;;;5094004;28;20040;-76
2022/09/03 06:53:58;;;;;;;0.30;0.30;;;15.00;99.90;;;;;;5099674;28;20118;-76
2022/09/03 06:56:25;;;;;;;0.30;0.30;;;15.10;99.90;;;;;;5091565;28;20040;-77
2022/09/03 06:59:03;;;;;;;0.30;0.30;;;15.20;99.90;;;;;;5073177;28;20032;-76
2022/09/03 07:01:30;;;;;;;0.30;0.30;;;15.30;99.90;;;;;;5081142;28;20082;-75
2022/09/03 07:04:01;;;;;;;0.57;0.57;;;15.40;99.90;;;;;;5085630;28;20062;-76
2022/09/03 07:06:35;;;;;;;0.30;0.30;;;15.50;99.90;;;;;;5085415;28;20040;-77
2022/09/03 07:09:02;;;;;;;0.30;0.30;;;15.50;99.90;;;;;;5059589;28;20048;-76
2022/09/03 07:11:30;;;;;;;0.35;0.35;;;15.60;99.90;;;;;;5102195;28;20043;-77
2022/09/03 07:13:57;;;;;;;0.20;0.20;;;15.70;99.90;;;;;;5087733;28;20043;-77
2022/09/03 07:16:28;;;;;;;0.20;0.20;;;15.80;99.90;;;;;;5088419;28;20047;-77
2022/09/03 07:18:55;;;;;;;0.25;0.25;;;15.90;99.90;;;;;;5090037;28;20134;-76
2022/09/03 07:21:25;;;;;;;0.50;0.50;;;16.00;99.90;;;;;;5109228;28;20047;-77
2022/09/03 07:23:53;;;;;;;0.30;0.30;;;16.00;99.90;;;;;;5068767;28;20047;-77
2022/09/03 07:26:24;;;;;;;0.30;0.30;;;16.10;99.90;;;;;;5082563;28;20079;-76
2022/09/03 07:28:52;;;;;;;0.40;0.40;;;16.30;99.90;;;;;;5083064;28;20040;-77
2022/09/03 07:31:26;;;;;;;0.22;0.22;;;16.40;99.90;;;;;;5109855;28;20062;-78
2022/09/03 07:33:56;;;;;;;0.45;0.45;;;16.40;99.90;;;;;;5096046;28;20139;-77
2022/09/03 07:36:23;;;;;;;0.20;0.20;;;16.60;99.90;;;;;;5089737;28;20040;-77
2022/09/03 07:38:50;;;;;;;0.40;0.40;;;16.70;99.90;;;;;;5088745;28;20040;-78
2022/09/03 07:41:15;;;;;;;0.28;0.28;;;16.80;99.90;;;;;;5071304;28;20044;-77
2022/09/03 07:43:42;;;;;;;;;;;16.90;99.90;;;;;;5089072;28;20082;-77
2022/09/03 07:46:11;;;;;;;0.20;0.20;;;16.90;99.90;;;;;;5089575;28;20012;-77
2022/09/03 07:48:42;;;;;;;0.65;0.50;;;17.00;99.90;;;;;;5088638;28;20044;-77
2022/09/03 07:51:08;;;;;;;0.25;0.25;;;17.10;99.90;;;;;;5090988;28;20663;-77
2022/09/03 07:53:35;;;;;;;0.20;0.20;;;17.10;99.90;;;;;;5090732;28;20046;-76
2022/09/03 07:56:09;;;;;;;0.30;0.30;;;17.30;99.90;;;;;;5091532;28;20048;-77
2022/09/03 07:58:36;;;;;;;0.40;0.40;;;17.40;99.90;;;;;;5075649;28;20037;-77
2022/09/03 08:01:07;;;;;;;0.20;0.20;;;17.50;99.90;;;;;;5080129;28;20048;-78
2022/09/03 08:03:34;;;;;;;4.78;0.32;;;17.50;99.90;;;;;;5090787;28;20059;-78
2022/09/03 08:06:05;;;;;;;0.30;0.30;;;17.60;99.90;;;;;;5081653;28;20128;-78
2022/09/03 08:08:35;;;;;;;0.30;0.30;;;17.70;99.90;;;;;;5079111;28;20036;-77
2022/09/03 08:11:09;;;;;;;0.20;0.20;;;17.80;99.90;;;;;;5086257;28;20490;-78
2022/09/03 08:13:56;;;;;;;0.30;0.30;;;17.90;99.90;;;;;;5090064;28;20060;-78
2022/09/03 08:16:22;;;;;;;0.63;0.63;;;18.00;99.90;;;;;;5072075;28;20125;-77
2022/09/03 08:18:49;;;;;;;;;;;18.00;99.90;;;;;;5091000;28;20044;-78
2022/09/03 08:21:18;;;;;;;0.25;0.20;;;18.10;99.90;;;;;;5081985;28;19968;-78
2022/09/03 08:23:46;;;;;;;0.20;0.20;;;18.20;99.90;;;;;;5080862;28;20048;-77
2022/09/03 08:26:13;;;;;;;0.28;0.28;;;18.30;99.90;;;;;;5076604;28;20454;-77
2022/09/03 08:28:42;;;;;;;0.30;0.30;;;18.40;99.90;;;;;;5086187;28;20078;-78
2022/09/03 08:31:19;;;;;;;0.20;0.20;;;18.40;99.90;;;;;;5092641;28;20060;-77
2022/09/03 08:33:51;;;;;;;0.20;0.20;;;18.60;99.90;;;;;;5096812;28;20059;-77
2022/09/03 08:36:22;;;;;;;0.30;0.30;;;18.60;99.90;;;;;;5077948;28;20076;-78
2022/09/03 08:38:53;;;;;;;0.20;0.20;;;18.70;99.90;;;;;;5071932;28;20515;-78
2022/09/03 08:41:52;;;;;;;0.35;0.35;;;18.80;99.90;;;;;;5091748;28;20367;-77
2022/09/03 08:44:20;;;;;;;0.20;0.20;;;18.90;99.90;;;;;;5082400;28;20083;-76
2022/09/03 08:47:10;;;;;;;0.20;0.20;;;19.00;99.30;;;;;;5084962;28;20051;-75
2022/09/03 08:49:56;;;;;;;0.28;0.28;;;19.10;99.90;;;;;;5079199;28;20040;-77
2022/09/03 08:52:36;;;;;;;0.20;0.20;;;19.20;99.90;;;;;;5087824;28;20054;-76
2022/09/03 08:55:24;;;;;;;0.35;0.28;;;19.30;99.90;;;;;;5099813;28;20105;-77
2022/09/03 08:57:56;;;;;;;0.20;0.20;;;19.40;99.20;;;;;;5081817;28;20028;-77
2022/09/03 09:00:22;;;;;;;0.20;0.20;;;19.60;99.40;;;;;;5086678;28;20048;-76
2022/09/03 09:02:52;;;;;;;;;;;19.60;98.30;;;;;;5087767;28;20032;-77
2022/09/03 09:05:26;;;;;;;0.50;0.50;;;19.70;98.30;;;;;;5087667;28;19928;-77
2022/09/03 09:08:15;;;;;;;1.23;0.93;;;19.80;98.60;;;;;;5076787;28;20109;-77
2022/09/03 09:10:51;;;;;;;0.22;0.22;;;19.90;99.10;;;;;;5088719;28;20104;-78
2022/09/03 09:13:55;;;;;;;0.20;0.20;;;20.00;98.40;;;;;;5089697;28;20559;-77
2022/09/03 09:16:35;;;;;;;0.20;0.20;;;20.10;96.90;;;;;;5025774;28;20044;-77
2022/09/03 09:19:47;;;;;;;0.20;0.20;;;20.10;95.60;;;;;;5085372;28;20066;-77
2022/09/03 09:22:49;;;;;;;0.20;0.20;;;20.10;96.00;;;;;;5083216;28;20054;-77
2022/09/03 09:25:21;;;;;;;0.30;0.30;;;20.10;95.60;;;;;;5079400;28;20245;-77
2022/09/03 09:27:53;;;;;;;0.20;0.20;;;20.20;95.30;;;;;;5072215;28;20107;-77
2022/09/03 09:30:19;;;;;;;0.20;0.20;;;20.30;96.10;;;;;;5092979;28;20040;-77
2022/09/03 09:32:46;;;;;;;0.20;0.20;;;20.40;95.70;;;;;;5071296;28;20054;-77
2022/09/03 09:35:14;;;;;;;0.13;0.13;;;20.50;95.40;;;;;;5090733;28;20178;-77
2022/09/03 09:37:48;;;;;;;0.30;0.30;;;20.60;94.70;;;;;;5069826;28;20039;-77
2022/09/03 09:40:32;;;;;;;0.17;0.17;;;20.70;95.30;;;;;;5088534;28;20474;-77
2022/09/03 09:43:06;;;;;;;0.20;0.20;;;20.80;95.20;;;;;;5062055;28;20032;-77
2022/09/03 09:45:33;;;;;;;0.30;0.30;;;20.90;95.80;;;;;;5085903;28;20083;-77
2022/09/03 09:48:01;;;;;;;0.20;0.20;;;21.00;93.40;;;;;;5086492;28;20047;-77
2022/09/03 09:50:27;;;;;;;0.20;0.20;;;21.10;93.80;;;;;;5086317;28;20047;-77
2022/09/03 09:53:13;;;;;;;0.30;0.30;;;21.20;94.70;;;;;;5088005;28;20048;-77
2022/09/03 09:55:55;;;;;;;0.40;0.35;;;21.30;94.00;;;;;;5080457;28;20056;-77
2022/09/03 09:58:27;;;;;;;0.20;0.20;;;21.50;93.70;;;;;;5072630;28;20115;-78
2022/09/03 10:01:02;;;;;;;0.30;0.30;;;21.50;91.60;;;;;;5080178;28;20408;-77
2022/09/03 10:03:31;;;;;;;0.20;0.20;;;21.50;92.20;;;;;;5083986;28;20145;-77
2022/09/03 10:06:52;;;;;;;0.15;0.15;;;21.50;91.40;;;;;;5102255;28;20043;-77
2022/09/03 10:08:50;;;;;;;0.68;0.68;;;21.60;91.60;;;;;;5081751;28;20056;-76
2022/09/03 10:11:18;;;;;;;0.20;0.20;;;21.60;91.10;;;;;;5054947;28;20080;-75
2022/09/03 10:13:47;;;;;;;0.15;0.15;;;21.80;91.60;;;;;;5095752;28;20067;-75
2022/09/03 10:16:28;;;;;;;0.30;0.30;;;21.90;91.50;;;;;;5102651;28;20044;-76
2022/09/03 10:19:10;;;;;;;0.52;0.52;;;22.10;91.90;;;;;;5101505;28;20046;-75
2022/09/03 10:21:46;;;;;;;0.10;0.10;;;22.30;90.00;;;;;;5052621;28;20139;-77
2022/09/03 10:24:40;;;;;;;0.20;0.20;;;22.40;89.60;;;;;;5097618;28;20040;-77
2022/09/03 10:27:12;;;;;;;0.20;0.20;;;22.50;89.80;;;;;;5070100;28;20486;-76
2022/09/03 10:29:40;;;;;;;0.30;0.30;;;22.60;86.10;;;;;;5069127;28;20046;-77
2022/09/03 10:32:21;;;;;;;0.20;0.20;;;22.70;87.20;;;;;;5071962;28;20109;-77
2022/09/03 10:35:24;;;;;;;0.57;0.57;;;22.90;87.00;;;;;;5106783;28;20054;-77
2022/09/03 10:38:04;;;;;;;0.20;0.20;;;22.80;82.90;;;;;;5085292;28;20086;-75
2022/09/03 10:40:43;;;;;;;0.20;0.20;;;22.80;78.70;;;;;;5069940;28;20533;-75
2022/09/03 10:43:35;;;;;;;0.20;0.20;;;22.80;78.60;;;;;;5092033;28;20066;-77
2022/09/03 10:46:14;;;;;;;0.43;0.43;;;22.90;79.80;;;;;;5056937;28;20040;-77
2022/09/03 10:49:19;;;;;;;0.22;0.22;;;23.00;77.10;;;;;;5086170;28;20126;-77
2022/09/03 10:51:57;;;;;;;0.20;0.20;;;23.10;75.00;;;;;;5091214;28;20039;-76
2022/09/03 10:54:51;;;;;;;0.22;0.22;;;23.10;77.70;;;;;;5100450;28;20047;-77
2022/09/03 10:57:38;;;;;;;0.20;0.20;;;23.10;75.00;;;;;;5071589;28;20326;-81
2022/09/03 11:00:13;;;;;;;;;;;23.20;74.80;;;;;;5102268;28;20039;-78
2022/09/03 11:03:01;;;;;;;0.30;0.30;;;23.30;74.60;;;;;;5103811;28;19922;-76
2022/09/03 11:05:28;;;;;;;0.40;0.35;;;23.40;74.50;;;;;;5087813;28;20612;-78
2022/09/03 11:08:07;;;;;;;0.20;0.20;;;23.50;75.20;;;;;;5089127;28;20401;-76
2022/09/03 11:10:39;;;;;;;0.10;0.10;;;23.60;72.40;;;;;;5088463;28;20051;-77
2022/09/03 11:13:12;;;;;;;0.20;0.20;;;23.70;70.70;;;;;;5086710;28;20044;-78
2022/09/03 11:15:56;;;;;;;0.30;0.30;;;23.70;71.10;;;;;;5086203;28;20076;-78
2022/09/03 11:18:28;;;;;;;0.20;0.20;;;23.70;69.60;;;;;;5083959;28;20040;-77
2022/09/03 11:20:59;;;;;;;0.30;0.30;;;23.80;73.00;;;;;;5090931;28;20119;-78
2022/09/03 11:23:27;;;;;;;0.30;0.30;;;23.90;72.40;;;;;;5090781;28;20048;-78
2022/09/03 11:25:56;;;;;;;0.20;0.20;;;24.00;68.80;;;;;;5088766;28;20382;-77
2022/09/03 11:28:37;;;;;;;0.20;0.20;;;24.00;66.90;;;;;;5104941;28;20043;-78
2022/09/03 11:31:05;;;;;;;0.28;0.28;;;24.10;67.10;;;;;;5112034;28;20136;-78
2022/09/03 11:33:34;;;;;;;0.25;0.25;;;24.10;66.40;;;;;;5111283;28;20048;-78
2022/09/03 11:36:01;;;;;;;0.10;0.10;;;24.20;65.40;;;;;;5104640;28;20047;-78
2022/09/03 11:38:30;;;;;;;0.20;0.20;;;24.30;66.60;;;;;;5091198;28;20119;-79
2022/09/03 11:41:13;;;;;;;0.20;0.20;;;24.40;64.20;;;;;;5088604;28;20072;-78
2022/09/03 11:43:39;;;;;;;0.20;0.20;;;24.50;65.10;;;;;;5087527;28;20056;-78
2022/09/03 11:46:11;;;;;;;0.30;0.30;;;24.60;61.80;;;;;;5087971;28;20044;-77
2022/09/03 11:48:39;;;;;;;0.20;0.20;;;24.60;63.30;;;;;;5088541;28;20052;-78
2022/09/03 11:51:32;;;;;;;0.30;0.30;;;24.70;62.10;;;;;;5089166;28;20047;-78
2022/09/03 11:54:24;;;;;;;0.30;0.30;;;24.70;62.50;;;;;;5089291;28;20131;-78
2022/09/03 11:57:02;;;;;;;0.45;0.45;;;24.70;60.20;;;;;;5088342;28;20044;-78
2022/09/03 11:59:29;;;;;;;0.10;0.10;;;24.80;62.80;;;;;;5090836;28;20059;-77
2022/09/03 12:02:00;;;;;;;0.20;0.20;;;24.90;61.70;;;;;;5075116;28;20036;-78
2022/09/03 12:04:48;;;;;;;0.30;0.30;;;24.90;62.00;;;;;;5082690;28;20036;-78
2022/09/03 12:07:40;;;;;;;0.20;0.20;;;24.90;58.00;;;;;;5054825;28;20036;-77
2022/09/03 12:10:06;;;;;;;0.20;0.20;;;25.00;60.80;;;;;;5106414;28;20039;-78
2022/09/03 12:12:38;;;;;;;0.25;0.25;;;25.10;58.30;;;;;;5094433;28;20047;-78
2022/09/03 12:15:19;;;;;;;0.47;0.43;;;25.20;59.80;;;;;;5103821;28;20040;-78
2022/09/03 12:18:17;;;;;;;0.17;0.17;;;25.40;61.10;;;;;;5067648;28;20048;-78
2022/09/03 12:20:39;;;;;;;0.15;0.15;;;25.50;58.30;;;;;;5078292;28;20063;-78
2022/09/03 12:23:06;;;;;;;2.40;0.65;;;25.70;60.00;;;;;;5079634;28;20478;-77
2022/09/03 12:25:32;;;;;;;0.25;0.25;;;25.80;59.00;;;;;;5083086;28;20113;-77
2022/09/03 12:28:03;;;;;;;0.15;0.15;;;25.80;56.80;;;;;;5083724;28;20048;-77
2022/09/03 12:30:29;;;;;;;0.20;0.20;;;25.90;56.00;;;;;;5078948;28;20473;-78
2022/09/03 12:33:06;;;;;;;0.40;0.40;;;25.90;57.20;;;;;;5086419;28;20048;-78
2022/09/03 12:35:32;;;;;;;0.20;0.20;;;26.00;56.40;;;;;;5070218;28;20371;-78
2022/09/03 12:37:57;;;;;;;0.30;0.30;;;26.10;59.90;;;;;;5071131;28;20035;-79
2022/09/03 12:40:26;;;;;;;0.32;0.32;;;26.20;56.10;;;;;;5070407;28;20116;-77
2022/09/03 12:42:53;;;;;;;0.20;0.20;;;26.30;58.20;;;;;;5069852;28;20040;-78
2022/09/03 12:45:25;;;;;;;0.45;0.45;;;26.40;56.80;;;;;;5099245;28;20043;-78
2022/09/03 12:47:52;;;;;;;0.20;0.20;;;26.60;58.20;;;;;;5082091;28;20044;-78
2022/09/03 12:50:21;;;;;;;0.22;0.22;;;26.50;52.50;;;;;;5070793;28;20554;-78
2022/09/03 12:52:58;;;;;;;0.30;0.30;;;26.50;56.20;;;;;;5070087;28;20063;-79
2022/09/03 12:55:23;;;;;;;0.10;0.10;;;26.60;57.30;;;;;;5075646;28;20369;-78
2022/09/03 12:57:54;;;;;;;0.20;0.20;;;26.70;54.20;;;;;;5052952;28;20093;-77
2022/09/03 13:00:21;;;;;;;0.20;0.20;;;26.80;53.00;;;;;;5070555;28;20116;-77
2022/09/03 13:03:07;;;;;;;0.38;0.38;;;26.70;54.50;;;;;;5069986;28;20052;-79
2022/09/03 13:05:44;;;;;;;0.40;0.40;;;26.90;54.80;;;;;;5073359;28;20112;-78
2022/09/03 13:08:17;;;;;;;0.13;0.13;;;27.00;53.50;;;;;;5104058;28;20051;-79
2022/09/03 13:10:43;;;;;;;0.20;0.20;;;27.30;52.70;;;;;;5098477;28;20134;-78
2022/09/03 13:13:32;;;;;;;0.30;0.30;;;27.50;55.40;;;;;;5091046;28;20468;-78
2022/09/03 13:16:16;;;;;;;0.10;0.10;;;27.60;53.10;;;;;;5078691;28;20123;-79
2022/09/03 13:19:01;;;;;;;0.32;0.28;;;27.70;52.00;;;;;;5070972;28;20040;-77
2022/09/03 13:21:26;;;;;;;0.20;0.20;;;28.00;54.70;;;;;;5083346;28;20075;-79
2022/09/03 13:24:18;;;;;;;0.10;0.10;;;28.20;51.10;;;;;;5100060;28;20085;-77
2022/09/03 13:27:19;;;;;;;0.30;0.30;;;28.30;51.70;;;;;;5068706;28;20104;-77